sensor_id;sensor_type;location;lat;lon;timestamp;pressure;altitude;pressure_sealevel;temperature;humidity
48926;BME280;39838;59.938;30.642;2023-04-22T00:00:18;100541.00;;;10.37;54.25
48926;BME280;39838;59.938;30.642;2023-04-22T00:02:47;100546.19;;;10.39;54.76
48926;BME280;39838;59.938;30.642;2023-04-22T00:05:14;100544.47;;;10.38;54.27
48926;BME280;39838;59.938;30.642;2023-04-22T00:07:43;100548.78;;;10.36;54.08
48926;BME280;39838;59.938;30.642;2023-04-22T00:10:10;100536.66;;;10.32;54.41
48926;BME280;39838;59.938;30.642;2023-04-22T00:12:37;100543.56;;;10.28;54.04
48926;BME280;39838;59.938;30.642;2023-04-22T00:15:06;100535.72;;;10.22;54.82
48926;BME280;39838;59.938;30.642;2023-04-22T00:17:33;100535.72;;;10.22;54.08
48926;BME280;39838;59.938;30.642;2023-04-22T00:20:02;100537.53;;;10.23;54.87
48926;BME280;39838;59.938;30.642;2023-04-22T00:22:31;100534.91;;;10.25;54.48
48926;BME280;39838;59.938;30.642;2023-04-22T00:24:58;100539.25;;;10.27;54.76
48926;BME280;39838;59.938;30.642;2023-04-22T00:27:25;100537.50;;;10.29;54.69
48926;BME280;39838;59.938;30.642;2023-04-22T00:29:52;100541.84;;;10.32;54.46
48926;BME280;39838;59.938;30.642;2023-04-22T00:32:20;100535.78;;;10.25;54.29
48926;BME280;39838;59.938;30.642;2023-04-22T00:34:47;100534.94;;;10.23;54.22
48926;BME280;39838;59.938;30.642;2023-04-22T00:37:16;100529.66;;;10.22;54.27
48926;BME280;39838;59.938;30.642;2023-04-22T00:39:43;100526.28;;;10.24;54.91
48926;BME280;39838;59.938;30.642;2023-04-22T00:42:12;100504.56;;;10.05;54.57
48926;BME280;39838;59.938;30.642;2023-04-22T00:44:39;100523.59;;;10.12;54.72
48926;BME280;39838;59.938;30.642;2023-04-22T00:47:07;100523.63;;;10.17;54.44
48926;BME280;39838;59.938;30.642;2023-04-22T00:49:35;100525.34;;;10.15;54.35
48926;BME280;39838;59.938;30.642;2023-04-22T00:52:02;100520.16;;;10.10;54.69
48926;BME280;39838;59.938;30.642;2023-04-22T00:54:31;100517.56;;;10.10;54.54
48926;BME280;39838;59.938;30.642;2023-04-22T00:57:00;100519.28;;;10.11;54.30
48926;BME280;39838;59.938;30.642;2023-04-22T00:59:28;100511.47;;;10.08;54.88
48926;BME280;39838;59.938;30.642;2023-04-22T01:01:55;100507.16;;;10.07;54.68
48926;BME280;39838;59.938;30.642;2023-04-22T01:04:23;100508.00;;;10.07;54.44
48926;BME280;39838;59.938;30.642;2023-04-22T01:06:51;100495.88;;;9.99;54.77
48926;BME280;39838;59.938;30.642;2023-04-22T01:09:19;100509.75;;;10.07;54.82
48926;BME280;39838;59.938;30.642;2023-04-22T01:11:47;100512.34;;;10.11;54.86
48926;BME280;39838;59.938;30.642;2023-04-22T01:14:15;100501.97;;;10.10;54.84
48926;BME280;39838;59.938;30.642;2023-04-22T01:16:44;100494.19;;;10.10;54.82
48926;BME280;39838;59.938;30.642;2023-04-22T01:19:11;100497.66;;;10.18;55.09
48926;BME280;39838;59.938;30.642;2023-04-22T01:21:39;100499.41;;;10.16;54.55
48926;BME280;39838;59.938;30.642;2023-04-22T01:24:08;100497.66;;;10.12;55.19
48926;BME280;39838;59.938;30.642;2023-04-22T01:26:35;100499.38;;;10.10;55.08
48926;BME280;39838;59.938;30.642;2023-04-22T01:29:03;100501.13;;;10.11;55.16
48926;BME280;39838;59.938;30.642;2023-04-22T01:31:30;100501.09;;;10.12;54.54
48926;BME280;39838;59.938;30.642;2023-04-22T01:33:58;100502.84;;;10.13;54.50
48926;BME280;39838;59.938;30.642;2023-04-22T01:36:26;100497.66;;;10.18;54.75
48926;BME280;39838;59.938;30.642;2023-04-22T01:38:53;100485.53;;;10.20;54.59
48926;BME280;39838;59.938;30.642;2023-04-22T01:41:22;100490.75;;;10.19;54.45
48926;BME280;39838;59.938;30.642;2023-04-22T01:43:52;100489.00;;;10.16;54.93
48926;BME280;39838;59.938;30.642;2023-04-22T01:46:19;100487.28;;;10.17;54.86
48926;BME280;39838;59.938;30.642;2023-04-22T01:48:46;100489.88;;;10.20;55.01
48926;BME280;39838;59.938;30.642;2023-04-22T01:51:16;100495.06;;;10.20;54.92
48926;BME280;39838;59.938;30.642;2023-04-22T01:53:45;100487.28;;;10.21;55.10
48926;BME280;39838;59.938;30.642;2023-04-22T01:56:12;100482.06;;;10.21;54.96
48926;BME280;39838;59.938;30.642;2023-04-22T01:58:41;100476.88;;;10.21;54.79
48926;BME280;39838;59.938;30.642;2023-04-22T02:01:10;100482.94;;;10.20;55.33
48926;BME280;39838;59.938;30.642;2023-04-22T02:03:37;100481.22;;;10.16;55.61
48926;BME280;39838;59.938;30.642;2023-04-22T02:06:04;100477.75;;;10.14;55.58
48926;BME280;39838;59.938;30.642;2023-04-22T02:08:32;100488.13;;;10.16;55.58
48926;BME280;39838;59.938;30.642;2023-04-22T02:10:59;100482.06;;;10.09;55.64
48926;BME280;39838;59.938;30.642;2023-04-22T02:13:34;100456.06;;;9.94;55.31
48926;BME280;39838;59.938;30.642;2023-04-22T02:16:03;100478.59;;;10.04;56.06
48926;BME280;39838;59.938;30.642;2023-04-22T02:18:30;100472.53;;;9.99;56.16
48926;BME280;39838;59.938;30.642;2023-04-22T02:20:58;100459.56;;;9.99;56.12
48926;BME280;39838;59.938;30.642;2023-04-22T02:23:25;100463.88;;;10.07;56.02
48926;BME280;39838;59.938;30.642;2023-04-22T02:25:54;100465.63;;;10.07;55.87
48926;BME280;39838;59.938;30.642;2023-04-22T02:28:21;100471.66;;;10.09;55.49
48926;BME280;39838;59.938;30.642;2023-04-22T02:30:48;100469.09;;;10.12;56.15
48926;BME280;39838;59.938;30.642;2023-04-22T02:33:17;100469.97;;;10.09;56.30
48926;BME280;39838;59.938;30.642;2023-04-22T02:35:44;100477.75;;;10.14;56.35
48926;BME280;39838;59.938;30.642;2023-04-22T02:38:12;100465.63;;;10.15;56.07
48926;BME280;39838;59.938;30.642;2023-04-22T02:40:39;100470.84;;;10.19;56.41
48926;BME280;39838;59.938;30.642;2023-04-22T02:43:06;100470.84;;;10.16;56.42
48926;BME280;39838;59.938;30.642;2023-04-22T02:45:33;100465.63;;;10.15;56.30
48926;BME280;39838;59.938;30.642;2023-04-22T02:48:00;100473.44;;;10.16;56.23
48926;BME280;39838;59.938;30.642;2023-04-22T02:50:29;100476.03;;;10.16;56.46
48926;BME280;39838;59.938;30.642;2023-04-22T02:52:56;100471.69;;;10.21;55.73
48926;BME280;39838;59.938;30.642;2023-04-22T02:55:23;100474.31;;;10.23;55.91
48926;BME280;39838;59.938;30.642;2023-04-22T02:57:51;100469.97;;;10.20;56.12
48926;BME280;39838;59.938;30.642;2023-04-22T03:00:18;100474.28;;;10.10;55.47
48926;BME280;39838;59.938;30.642;2023-04-22T03:02:45;100479.47;;;10.07;55.44
48926;BME280;39838;59.938;30.642;2023-04-22T03:05:12;100476.88;;;10.03;56.01
48926;BME280;39838;59.938;30.642;2023-04-22T03:07:42;100478.59;;;10.01;55.47
48926;BME280;39838;59.938;30.642;2023-04-22T03:10:09;100477.72;;;9.99;55.26
48926;BME280;39838;59.938;30.642;2023-04-22T03:12:36;100478.56;;;9.92;56.15
48926;BME280;39838;59.938;30.642;2023-04-22T03:15:04;100475.09;;;9.83;55.82
48926;BME280;39838;59.938;30.642;2023-04-22T03:17:33;100481.13;;;9.81;55.89
48926;BME280;39838;59.938;30.642;2023-04-22T03:20:00;100474.22;;;9.80;56.02
48926;BME280;39838;59.938;30.642;2023-04-22T03:22:30;100474.22;;;9.81;56.32
48926;BME280;39838;59.938;30.642;2023-04-22T03:24:59;100476.81;;;9.84;56.22
48926;BME280;39838;59.938;30.642;2023-04-22T03:27:26;100479.44;;;9.89;56.06
48926;BME280;39838;59.938;30.642;2023-04-22T03:29:53;100482.03;;;9.91;56.10
48926;BME280;39838;59.938;30.642;2023-04-22T03:32:20;100467.31;;;9.91;56.11
48926;BME280;39838;59.938;30.642;2023-04-22T03:34:47;100465.59;;;9.95;55.41
48926;BME280;39838;59.938;30.642;2023-04-22T03:37:15;100464.75;;;9.99;55.27
48926;BME280;39838;59.938;30.642;2023-04-22T03:39:42;100463.88;;;10.06;55.28
48926;BME280;39838;59.938;30.642;2023-04-22T03:42:13;100463.91;;;10.10;55.71
48926;BME280;39838;59.938;30.642;2023-04-22T03:44:40;100458.72;;;10.12;55.16
48926;BME280;39838;59.938;30.642;2023-04-22T03:47:07;100471.69;;;10.21;54.76
48926;BME280;39838;59.938;30.642;2023-04-22T03:49:34;100471.72;;;10.27;54.55
48926;BME280;39838;59.938;30.642;2023-04-22T03:52:02;100469.16;;;10.32;55.06
48926;BME280;39838;59.938;30.642;2023-04-22T03:54:29;100464.81;;;10.35;55.10
48926;BME280;39838;59.938;30.642;2023-04-22T03:56:56;100457.03;;;10.37;55.17
48926;BME280;39838;59.938;30.642;2023-04-22T03:59:25;100467.44;;;10.37;54.67
48926;BME280;39838;59.938;30.642;2023-04-22T04:01:52;100463.09;;;10.37;55.13
48926;BME280;39838;59.938;30.642;2023-04-22T04:04:19;100463.06;;;10.36;54.07
48926;BME280;39838;59.938;30.642;2023-04-22T04:06:47;100467.44;;;10.37;54.44
48926;BME280;39838;59.938;30.642;2023-04-22T04:09:15;100463.94;;;10.41;54.53
48926;BME280;39838;59.938;30.642;2023-04-22T04:11:42;100463.94;;;10.43;54.02
48926;BME280;39838;59.938;30.642;2023-04-22T04:14:09;100462.22;;;10.45;53.98
48926;BME280;39838;59.938;30.642;2023-04-22T04:16:37;100459.63;;;10.48;53.97
48926;BME280;39838;59.938;30.642;2023-04-22T04:19:05;100462.22;;;10.52;53.66
48926;BME280;39838;59.938;30.642;2023-04-22T04:21:32;100460.50;;;10.53;53.75
48926;BME280;39838;59.938;30.642;2023-04-22T04:23:59;100462.19;;;10.49;53.69
48926;BME280;39838;59.938;30.642;2023-04-22T04:26:27;100468.25;;;10.42;54.19
48926;BME280;39838;59.938;30.642;2023-04-22T04:28:54;100463.94;;;10.41;53.71
48926;BME280;39838;59.938;30.642;2023-04-22T04:31:22;100457.03;;;10.43;53.55
48926;BME280;39838;59.938;30.642;2023-04-22T04:33:51;100457.00;;;10.42;53.52
48926;BME280;39838;59.938;30.642;2023-04-22T04:36:19;100457.88;;;10.41;53.94
48926;BME280;39838;59.938;30.642;2023-04-22T04:38:46;100457.88;;;10.41;54.13
48926;BME280;39838;59.938;30.642;2023-04-22T04:41:13;100447.50;;;10.44;53.67
48926;BME280;39838;59.938;30.642;2023-04-22T04:43:40;100444.03;;;10.51;53.64
48926;BME280;39838;59.938;30.642;2023-04-22T04:46:10;100449.25;;;10.57;53.57
48926;BME280;39838;59.938;30.642;2023-04-22T04:48:39;100449.25;;;10.57;53.54
48926;BME280;39838;59.938;30.642;2023-04-22T04:51:08;100456.16;;;10.58;52.94
48926;BME280;39838;59.938;30.642;2023-04-22T04:53:36;100444.88;;;10.60;53.23
48926;BME280;39838;59.938;30.642;2023-04-22T04:56:03;100444.03;;;10.66;53.17
48926;BME280;39838;59.938;30.642;2023-04-22T04:58:31;100442.28;;;10.71;53.49
48926;BME280;39838;59.938;30.642;2023-04-22T05:00:58;100438.81;;;10.75;53.10
48926;BME280;39838;59.938;30.642;2023-04-22T05:03:25;100431.88;;;10.76;52.67
48926;BME280;39838;59.938;30.642;2023-04-22T05:05:52;100437.03;;;10.83;53.29
48926;BME280;39838;59.938;30.642;2023-04-22T05:08:21;100441.38;;;10.92;52.61
48926;BME280;39838;59.938;30.642;2023-04-22T05:10:48;100444.81;;;11.00;52.90
48926;BME280;39838;59.938;30.642;2023-04-22T05:13:15;100431.78;;;11.08;52.48
48926;BME280;39838;59.938;30.642;2023-04-22T05:15:43;100438.72;;;11.09;52.29
48926;BME280;39838;59.938;30.642;2023-04-22T05:18:10;100434.41;;;11.11;52.36
48926;BME280;39838;59.938;30.642;2023-04-22T05:20:37;100432.63;;;11.17;52.26
48926;BME280;39838;59.938;30.642;2023-04-22T05:23:04;100433.47;;;11.27;52.17
48926;BME280;39838;59.938;30.642;2023-04-22T05:25:33;100426.50;;;11.31;51.54
48926;BME280;39838;59.938;30.642;2023-04-22T05:28:00;100424.78;;;11.33;51.63
48926;BME280;39838;59.938;30.642;2023-04-22T05:30:27;100421.31;;;11.29;51.69
48926;BME280;39838;59.938;30.642;2023-04-22T05:32:55;100420.44;;;11.30;51.39
48926;BME280;39838;59.938;30.642;2023-04-22T05:35:22;100423.00;;;11.39;51.62
48926;BME280;39838;59.938;30.642;2023-04-22T05:37:49;100424.72;;;11.43;51.33
48926;BME280;39838;59.938;30.642;2023-04-22T05:40:18;100426.44;;;11.47;50.75
48926;BME280;39838;59.938;30.642;2023-04-22T05:42:48;100429.03;;;11.47;50.61
48926;BME280;39838;59.938;30.642;2023-04-22T05:45:15;100429.06;;;11.43;51.08
48926;BME280;39838;59.938;30.642;2023-04-22T05:47:42;100416.94;;;11.37;50.56
48926;BME280;39838;59.938;30.642;2023-04-22T05:50:10;100427.34;;;11.45;50.65
48926;BME280;39838;59.938;30.642;2023-04-22T05:52:37;100425.56;;;11.52;50.56
48926;BME280;39838;59.938;30.642;2023-04-22T05:55:05;100426.38;;;11.57;50.41
48926;BME280;39838;59.938;30.642;2023-04-22T05:57:32;100420.28;;;11.62;49.99
48926;BME280;39838;59.938;30.642;2023-04-22T06:00:02;100421.16;;;11.66;50.13
48926;BME280;39838;59.938;30.642;2023-04-22T06:02:32;100421.97;;;11.69;49.98
48926;BME280;39838;59.938;30.642;2023-04-22T06:05:00;100414.19;;;11.68;50.16
48926;BME280;39838;59.938;30.642;2023-04-22T06:07:29;100417.66;;;11.67;50.46
48926;BME280;39838;59.938;30.642;2023-04-22T06:09:56;100416.78;;;11.69;50.31
48926;BME280;39838;59.938;30.642;2023-04-22T06:12:23;100408.94;;;11.74;50.49
48926;BME280;39838;59.938;30.642;2023-04-22T06:14:50;100411.53;;;11.79;50.17
48926;BME280;39838;59.938;30.642;2023-04-22T06:17:19;100415.00;;;11.82;50.18
48926;BME280;39838;59.938;30.642;2023-04-22T06:19:46;100412.41;;;11.81;50.23
48926;BME280;39838;59.938;30.642;2023-04-22T06:22:13;100412.34;;;11.85;50.14
48926;BME280;39838;59.938;30.642;2023-04-22T06:24:41;100419.28;;;11.89;50.22
48926;BME280;39838;59.938;30.642;2023-04-22T06:27:08;100416.66;;;11.94;50.06
48926;BME280;39838;59.938;30.642;2023-04-22T06:29:35;100414.00;;;11.98;50.03
48926;BME280;39838;59.938;30.642;2023-04-22T06:32:02;100413.97;;;12.05;49.91
48926;BME280;39838;59.938;30.642;2023-04-22T06:34:31;100421.78;;;12.08;49.61
48926;BME280;39838;59.938;30.642;2023-04-22T06:36:58;100413.91;;;12.11;49.69
48926;BME280;39838;59.938;30.642;2023-04-22T06:39:25;100414.72;;;12.19;49.46
48926;BME280;39838;59.938;30.642;2023-04-22T06:41:53;100410.34;;;12.27;49.05
48926;BME280;39838;59.938;30.642;2023-04-22T06:44:20;100407.66;;;12.32;48.93
48926;BME280;39838;59.938;30.642;2023-04-22T06:46:49;100415.38;;;12.47;48.57
48926;BME280;39838;59.938;30.642;2023-04-22T06:49:17;100414.44;;;12.52;48.52
48926;BME280;39838;59.938;30.642;2023-04-22T06:51:45;100404.81;;;12.61;48.44
48926;BME280;39838;59.938;30.642;2023-04-22T06:54:12;100403.94;;;12.62;48.46
48926;BME280;39838;59.938;30.642;2023-04-22T06:56:39;100404.84;;;12.57;48.57
48926;BME280;39838;59.938;30.642;2023-04-22T06:59:07;100402.31;;;12.48;48.57
48926;BME280;39838;59.938;30.642;2023-04-22T07:01:34;100403.19;;;12.46;49.01
48926;BME280;39838;59.938;30.642;2023-04-22T07:04:01;100405.75;;;12.55;48.60
48926;BME280;39838;59.938;30.642;2023-04-22T07:06:28;100404.84;;;12.56;48.74
48926;BME280;39838;59.938;30.642;2023-04-22T07:08:57;100398.75;;;12.57;48.54
48926;BME280;39838;59.938;30.642;2023-04-22T07:11:24;100405.66;;;12.60;48.73
48926;BME280;39838;59.938;30.642;2023-04-22T07:13:52;100404.78;;;12.62;48.54
48926;BME280;39838;59.938;30.642;2023-04-22T07:16:19;100398.69;;;12.63;48.43
48926;BME280;39838;59.938;30.642;2023-04-22T07:18:46;100398.69;;;12.65;48.31
48926;BME280;39838;59.938;30.642;2023-04-22T07:21:13;100397.78;;;12.69;48.32
48926;BME280;39838;59.938;30.642;2023-04-22T07:23:41;100399.47;;;12.73;48.26
48926;BME280;39838;59.938;30.642;2023-04-22T07:26:09;100396.94;;;12.67;48.25
48926;BME280;39838;59.938;30.642;2023-04-22T07:28:36;100398.63;;;12.71;48.26
48926;BME280;39838;59.938;30.642;2023-04-22T07:31:04;100400.28;;;12.78;48.21
48926;BME280;39838;59.938;30.642;2023-04-22T07:33:31;100382.88;;;12.81;48.33
48926;BME280;39838;59.938;30.642;2023-04-22T07:35:58;100387.13;;;12.90;48.09
48926;BME280;39838;59.938;30.642;2023-04-22T07:38:25;100386.97;;;13.02;48.08
48926;BME280;39838;59.938;30.642;2023-04-22T07:40:53;100386.91;;;13.08;47.85
48926;BME280;39838;59.938;30.642;2023-04-22T07:43:21;100385.03;;;13.18;47.78
48926;BME280;39838;59.938;30.642;2023-04-22T07:45:48;100354.69;;;13.11;47.42
48926;BME280;39838;59.938;30.642;2023-04-22T07:48:15;100378.84;;;13.30;47.39
48926;BME280;39838;59.938;30.642;2023-04-22T07:50:42;100384.88;;;13.33;47.31
48926;BME280;39838;59.938;30.642;2023-04-22T07:53:10;100386.69;;;13.28;46.85
48926;BME280;39838;59.938;30.642;2023-04-22T07:55:38;100378.00;;;13.26;47.00
48926;BME280;39838;59.938;30.642;2023-04-22T07:58:05;100378.13;;;13.16;46.65
48926;BME280;39838;59.938;30.642;2023-04-22T08:00:34;100377.25;;;13.13;47.13
48926;BME280;39838;59.938;30.642;2023-04-22T08:03:01;100367.66;;;13.22;47.13
48926;BME280;39838;59.938;30.642;2023-04-22T08:05:29;100382.25;;;13.35;46.93
48926;BME280;39838;59.938;30.642;2023-04-22T08:07:56;100376.00;;;13.48;46.70
48926;BME280;39838;59.938;30.642;2023-04-22T08:10:23;100378.47;;;13.57;46.50
48926;BME280;39838;59.938;30.642;2023-04-22T08:12:50;100381.88;;;13.62;45.97
48926;BME280;39838;59.938;30.642;2023-04-22T08:15:18;100378.41;;;13.62;46.33
48926;BME280;39838;59.938;30.642;2023-04-22T08:17:46;100380.94;;;13.66;46.14
48926;BME280;39838;59.938;30.642;2023-04-22T08:20:13;100386.94;;;13.73;45.94
48926;BME280;39838;59.938;30.642;2023-04-22T08:22:42;100386.03;;;13.76;46.45
48926;BME280;39838;59.938;30.642;2023-04-22T08:25:10;100385.03;;;13.84;46.34
48926;BME280;39838;59.938;30.642;2023-04-22T08:27:37;100379.75;;;13.89;46.10
48926;BME280;39838;59.938;30.642;2023-04-22T08:30:05;100385.66;;;14.00;45.50
48926;BME280;39838;59.938;30.642;2023-04-22T08:32:33;100389.00;;;14.10;45.27
48926;BME280;39838;59.938;30.642;2023-04-22T08:35:01;100381.16;;;14.08;45.10
48926;BME280;39838;59.938;30.642;2023-04-22T08:37:29;100375.16;;;14.03;45.71
48926;BME280;39838;59.938;30.642;2023-04-22T08:39:56;100368.06;;;14.11;45.59
48926;BME280;39838;59.938;30.642;2023-04-22T08:42:24;100374.06;;;14.16;45.61
48926;BME280;39838;59.938;30.642;2023-04-22T08:44:53;100364.34;;;14.25;45.06
48926;BME280;39838;59.938;30.642;2023-04-22T08:47:20;100364.34;;;14.25;44.96
48926;BME280;39838;59.938;30.642;2023-04-22T08:49:49;100348.72;;;14.21;44.67
48926;BME280;39838;59.938;30.642;2023-04-22T08:52:18;100373.81;;;14.32;44.44
48926;BME280;39838;59.938;30.642;2023-04-22T08:54:45;100373.75;;;14.35;44.34
48926;BME280;39838;59.938;30.642;2023-04-22T08:57:14;100366.06;;;14.26;43.96
48926;BME280;39838;59.938;30.642;2023-04-22T08:59:42;100374.63;;;14.34;43.69
48926;BME280;39838;59.938;30.642;2023-04-22T09:02:15;100366.00;;;14.29;43.67
48926;BME280;39838;59.938;30.642;2023-04-22T09:04:46;100376.34;;;14.36;43.30
48926;BME280;39838;59.938;30.642;2023-04-22T09:07:18;100371.84;;;14.44;43.79
48926;BME280;39838;59.938;30.642;2023-04-22T09:09:48;100375.13;;;14.57;42.75
48926;BME280;39838;59.938;30.642;2023-04-22T09:12:15;100365.28;;;14.71;42.27
48926;BME280;39838;59.938;30.642;2023-04-22T09:14:44;100371.22;;;14.80;42.56
48926;BME280;39838;59.938;30.642;2023-04-22T09:17:14;100348.63;;;14.75;41.43
48926;BME280;39838;59.938;30.642;2023-04-22T09:19:41;100377.78;;;15.00;41.52
48926;BME280;39838;59.938;30.642;2023-04-22T09:22:09;100375.09;;;15.03;40.74
48926;BME280;39838;59.938;30.642;2023-04-22T09:24:42;100375.25;;;14.96;41.39
48926;BME280;39838;59.938;30.642;2023-04-22T09:27:10;100365.63;;;14.96;41.44
48926;BME280;39838;59.938;30.642;2023-04-22T09:29:38;100373.41;;;15.01;41.15
48926;BME280;39838;59.938;30.642;2023-04-22T09:32:09;100373.19;;;15.10;41.23
48926;BME280;39838;59.938;30.642;2023-04-22T09:34:47;100362.72;;;15.12;40.60
48926;BME280;39838;59.938;30.642;2023-04-22T09:37:18;100365.22;;;15.18;39.95
48926;BME280;39838;59.938;30.642;2023-04-22T09:39:48;100353.03;;;15.15;40.22
48926;BME280;39838;59.938;30.642;2023-04-22T09:42:16;100357.47;;;15.13;39.87
48926;BME280;39838;59.938;30.642;2023-04-22T09:44:44;100349.56;;;15.15;39.96
48926;BME280;39838;59.938;30.642;2023-04-22T09:47:12;100351.97;;;15.25;39.89
48926;BME280;39838;59.938;30.642;2023-04-22T09:49:44;100350.09;;;15.30;39.46
48926;BME280;39838;59.938;30.642;2023-04-22T09:52:20;100353.47;;;15.36;39.85
48926;BME280;39838;59.938;30.642;2023-04-22T09:54:50;100348.13;;;15.42;39.24
48926;BME280;39838;59.938;30.642;2023-04-22T09:57:18;100344.59;;;15.43;39.36
48926;BME280;39838;59.938;30.642;2023-04-22T09:59:46;100344.69;;;15.40;38.81
48926;BME280;39838;59.938;30.642;2023-04-22T10:02:15;100349.28;;;15.28;39.08
48926;BME280;39838;59.938;30.642;2023-04-22T10:04:43;100354.69;;;15.21;39.65
48926;BME280;39838;59.938;30.642;2023-04-22T10:07:12;100350.31;;;15.21;39.59
48926;BME280;39838;59.938;30.642;2023-04-22T10:09:40;100333.69;;;15.22;39.26
48926;BME280;39838;59.938;30.642;2023-04-22T10:12:09;100357.13;;;15.28;39.10
48926;BME280;39838;59.938;30.642;2023-04-22T10:14:37;100341.41;;;15.28;39.23
48926;BME280;39838;59.938;30.642;2023-04-22T10:17:04;100348.59;;;15.20;39.35
48926;BME280;39838;59.938;30.642;2023-04-22T10:19:32;100343.44;;;15.16;39.72
48926;BME280;39838;59.938;30.642;2023-04-22T10:22:02;100342.63;;;15.14;39.58
48926;BME280;39838;59.938;30.642;2023-04-22T10:24:34;100334.84;;;15.11;39.25
48926;BME280;39838;59.938;30.642;2023-04-22T10:27:03;100335.09;;;14.97;39.74
48926;BME280;39838;59.938;30.642;2023-04-22T10:29:40;100333.34;;;14.99;39.40
48926;BME280;39838;59.938;30.642;2023-04-22T10:32:23;100339.47;;;14.98;40.37
48926;BME280;39838;59.938;30.642;2023-04-22T10:35:06;100342.84;;;15.03;40.22
48926;BME280;39838;59.938;30.642;2023-04-22T10:37:34;100321.75;;;15.11;39.75
48926;BME280;39838;59.938;30.642;2023-04-22T10:40:09;100296.72;;;14.99;39.81
48926;BME280;39838;59.938;30.642;2023-04-22T10:42:39;100326.91;;;15.14;39.83
48926;BME280;39838;59.938;30.642;2023-04-22T10:45:11;100314.06;;;15.03;40.10
48926;BME280;39838;59.938;30.642;2023-04-22T10:47:39;100313.75;;;15.18;40.15
48926;BME280;39838;59.938;30.642;2023-04-22T10:50:12;100299.53;;;15.28;40.03
48926;BME280;39838;59.938;30.642;2023-04-22T10:52:41;100287.28;;;15.30;39.66
48926;BME280;39838;59.938;30.642;2023-04-22T10:55:09;100303.44;;;15.49;39.83
48926;BME280;39838;59.938;30.642;2023-04-22T10:57:38;100280.94;;;15.41;39.59
48926;BME280;39838;59.938;30.642;2023-04-22T11:00:27;100301.47;;;15.57;39.54
48926;BME280;39838;59.938;30.642;2023-04-22T11:03:06;100307.41;;;15.67;39.57
48926;BME280;39838;59.938;30.642;2023-04-22T11:05:33;100300.22;;;15.75;39.57
48926;BME280;39838;59.938;30.642;2023-04-22T11:08:02;100310.66;;;15.78;39.05
48926;BME280;39838;59.938;30.642;2023-04-22T11:10:32;100301.78;;;15.82;39.00
48926;BME280;39838;59.938;30.642;2023-04-22T11:13:00;100300.06;;;15.81;38.88
48926;BME280;39838;59.938;30.642;2023-04-22T11:15:29;100300.00;;;15.84;39.14
48926;BME280;39838;59.938;30.642;2023-04-22T11:17:57;100296.38;;;15.90;38.95
48926;BME280;39838;59.938;30.642;2023-04-22T11:20:24;100277.25;;;15.87;38.77
48926;BME280;39838;59.938;30.642;2023-04-22T11:22:53;100304.78;;;16.03;38.74
48926;BME280;39838;59.938;30.642;2023-04-22T11:25:22;100287.44;;;15.99;38.86
48926;BME280;39838;59.938;30.642;2023-04-22T11:27:49;100289.97;;;16.02;38.97
48926;BME280;39838;59.938;30.642;2023-04-22T11:30:17;100296.84;;;16.06;39.16
48926;BME280;39838;59.938;30.642;2023-04-22T11:32:47;100261.94;;;16.05;38.73
48926;BME280;39838;59.938;30.642;2023-04-22T11:35:16;100279.44;;;16.03;38.98
48926;BME280;39838;59.938;30.642;2023-04-22T11:37:46;100295.19;;;16.02;39.18
48926;BME280;39838;59.938;30.642;2023-04-22T11:40:16;100282.91;;;16.04;38.58
48926;BME280;39838;59.938;30.642;2023-04-22T11:42:44;100287.19;;;16.08;38.96
48926;BME280;39838;59.938;30.642;2023-04-22T11:45:11;100280.13;;;16.10;39.17
48926;BME280;39838;59.938;30.642;2023-04-22T11:47:39;100273.13;;;16.10;38.85
48926;BME280;39838;59.938;30.642;2023-04-22T11:50:09;100281.31;;;15.98;38.31
48926;BME280;39838;59.938;30.642;2023-04-22T11:52:43;100293.88;;;15.84;38.64
48926;BME280;39838;59.938;30.642;2023-04-22T11:55:10;100272.16;;;15.80;39.10
48926;BME280;39838;59.938;30.642;2023-04-22T11:57:38;100274.84;;;15.79;39.08
48926;BME280;39838;59.938;30.642;2023-04-22T12:00:10;100274.78;;;15.80;38.83
48926;BME280;39838;59.938;30.642;2023-04-22T12:02:38;100266.03;;;15.81;38.95
48926;BME280;39838;59.938;30.642;2023-04-22T12:05:10;100273.22;;;15.73;39.47
48926;BME280;39838;59.938;30.642;2023-04-22T12:07:38;100262.09;;;15.65;39.59
48926;BME280;39838;59.938;30.642;2023-04-22T12:10:07;100264.75;;;15.62;39.54
48926;BME280;39838;59.938;30.642;2023-04-22T12:12:34;100266.53;;;15.62;39.49
48926;BME280;39838;59.938;30.642;2023-04-22T12:15:09;100249.84;;;15.66;39.17
48926;BME280;39838;59.938;30.642;2023-04-22T12:17:36;100268.88;;;15.72;39.01
48926;BME280;39838;59.938;30.642;2023-04-22T12:20:05;100254.66;;;15.82;39.28
48926;BME280;39838;59.938;30.642;2023-04-22T12:22:35;100246.06;;;16.10;38.76
48926;BME280;39838;59.938;30.642;2023-04-22T12:25:03;100241.06;;;16.33;39.14
48926;BME280;39838;59.938;30.642;2023-04-22T12:27:31;100258.78;;;16.56;38.01
48926;BME280;39838;59.938;30.642;2023-04-22T12:29:58;100246.47;;;16.89;37.45
48926;BME280;39838;59.938;30.642;2023-04-22T12:32:26;100266.34;;;17.26;36.31
48926;BME280;39838;59.938;30.642;2023-04-22T12:34:53;100255.66;;;17.59;35.24
48926;BME280;39838;59.938;30.642;2023-04-22T12:37:21;100268.94;;;18.09;34.95
48926;BME280;39838;59.938;30.642;2023-04-22T12:39:49;100270.19;;;18.47;34.38
48926;BME280;39838;59.938;30.642;2023-04-22T12:42:16;100250.22;;;18.66;34.01
48926;BME280;39838;59.938;30.642;2023-04-22T12:44:44;100252.44;;;19.00;33.14